Time;durP1;ratioP1;P1;durP2;ratioP2;P2;SDS_P1;SDS_P2;PMS_P1;PMS_P2;Temp;Humidity;BMP_temperature;BMP_pressure;BME280_temperature;BME280_humidity;BME280_pressure;Samples;Min_cycle;Max_cycle;Signal;HPM_P1;HPM_P2
2023/02/04 00:01:06;;;;;;;0.38;0.30;;;;;;;;;;5062981;28;20108;-46
2023/02/04 00:03:32;;;;;;;2.35;0.60;;;;;;;;;;5068354;28;20032;-50
2023/02/04 00:05:58;;;;;;;0.60;0.40;;;;;;;;;;5068458;28;20566;-46
2023/02/04 00:08:24;;;;;;;0.88;0.55;;;;;;;;;;5069336;28;20025;-47
2023/02/04 00:10:50;;;;;;;1.60;0.60;;;;;;;;;;5070046;28;20016;-50
2023/02/04 00:13:16;;;;;;;0.82;0.40;;;;;;;;;;5062963;28;20031;-47
2023/02/04 00:15:42;;;;;;;1.05;0.82;;;;;;;;;;5065357;28;20016;-46
2023/02/04 00:18:08;;;;;;;1.05;0.40;;;;;;;;;;5067773;28;20040;-46
2023/02/04 00:20:34;;;;;;;0.40;0.30;;;;;;;;;;5059571;28;20031;-46
2023/02/04 00:23:00;;;;;;;0.47;0.45;;;;;;;;;;5058609;28;20070;-46
2023/02/04 00:25:26;;;;;;;0.40;0.40;;;;;;;;;;5068944;28;20024;-48
2023/02/04 00:27:52;;;;;;;0.40;0.30;;;;;;;;;;5067144;28;20549;-46
2023/02/04 00:30:18;;;;;;;0.63;0.63;;;;;;;;;;5058014;28;20128;-48
2023/02/04 00:32:44;;;;;;;2.97;0.93;;;;;;;;;;5063967;28;20652;-47
2023/02/04 00:35:10;;;;;;;0.60;0.50;;;;;;;;;;5060829;28;20032;-47
2023/02/04 00:37:36;;;;;;;0.40;0.40;;;;;;;;;;5063249;28;20529;-45
2023/02/04 00:40:02;;;;;;;0.75;0.40;;;;;;;;;;5065911;28;20099;-45
2023/02/04 00:42:28;;;;;;;0.40;0.40;;;;;;;;;;5064753;28;20027;-51
2023/02/04 00:44:54;;;;;;;0.60;0.40;;;;;;;;;;5067811;28;20029;-49
2023/02/04 00:47:20;;;;;;;0.63;0.40;;;;;;;;;;5059896;28;20009;-51
2023/02/04 00:49:46;;;;;;;0.70;0.40;;;;;;;;;;5063203;28;20029;-48
2023/02/04 00:52:12;;;;;;;0.40;0.40;;;;;;;;;;5057210;28;20024;-48
2023/02/04 00:54:38;;;;;;;0.52;0.30;;;;;;;;;;5063561;28;20037;-47
2023/02/04 00:57:04;;;;;;;0.40;0.40;;;;;;;;;;5070175;28;20024;-47
2023/02/04 00:59:30;;;;;;;0.30;0.30;;;;;;;;;;5071933;28;20056;-46
2023/02/04 01:01:56;;;;;;;0.45;0.30;;;;;;;;;;5063500;28;20025;-47
2023/02/04 01:04:22;;;;;;;0.30;0.30;;;;;;;;;;5072673;28;20104;-46
2023/02/04 01:06:48;;;;;;;0.63;0.50;;;;;;;;;;5069886;28;20397;-47
2023/02/04 01:09:14;;;;;;;0.60;0.40;;;;;;;;;;5069856;28;20017;-47
2023/02/04 01:11:40;;;;;;;0.47;0.40;;;;;;;;;;5063631;28;20970;-46
2023/02/04 01:14:06;;;;;;;0.65;0.40;;;;;;;;;;5065335;28;20103;-50
2023/02/04 01:16:32;;;;;;;1.38;0.88;;;;;;;;;;5068228;28;20509;-47
2023/02/04 01:18:59;;;;;;;1.42;0.40;;;;;;;;;;5063753;28;20055;-47
2023/02/04 01:21:25;;;;;;;0.40;0.30;;;;;;;;;;5059587;28;20024;-50
2023/02/04 01:23:51;;;;;;;0.52;0.40;;;;;;;;;;5064644;28;20036;-46
2023/02/04 01:26:18;;;;;;;0.50;0.40;;;;;;;;;;5066441;28;20032;-49
2023/02/04 01:28:44;;;;;;;0.70;0.30;;;;;;;;;;5072015;28;20024;-46
2023/02/04 01:31:10;;;;;;;0.47;0.38;;;;;;;;;;5062939;28;20035;-47
2023/02/04 01:33:36;;;;;;;0.75;0.40;;;;;;;;;;5067552;28;20033;-45
2023/02/04 01:36:02;;;;;;;0.40;0.30;;;;;;;;;;5071327;28;20098;-46
2023/02/04 01:38:28;;;;;;;0.28;0.28;;;;;;;;;;5052004;28;20123;-46
2023/02/04 01:40:54;;;;;;;0.30;0.30;;;;;;;;;;5070711;28;20492;-46
2023/02/04 01:43:21;;;;;;;1.00;0.40;;;;;;;;;;5062661;28;20159;-46
2023/02/04 01:45:48;;;;;;;0.38;0.38;;;;;;;;;;5068351;28;20024;-47
2023/02/04 01:48:19;;;;;;;1.08;0.90;;;;;;;;;;5061185;28;20035;-48
2023/02/04 01:50:46;;;;;;;0.70;0.40;;;;;;;;;;5070121;28;20555;-46
2023/02/04 01:53:12;;;;;;;0.98;0.40;;;;;;;;;;5065823;28;20373;-47
2023/02/04 01:55:38;;;;;;;0.47;0.32;;;;;;;;;;5064541;28;20112;-50
2023/02/04 01:58:04;;;;;;;0.45;0.30;;;;;;;;;;5069974;28;20107;-46
2023/02/04 02:00:32;;;;;;;0.32;0.30;;;;;;;;;;5069547;28;20032;-46
2023/02/04 02:02:58;;;;;;;0.50;0.40;;;;;;;;;;5065401;28;20032;-48
2023/02/04 02:05:26;;;;;;;0.45;0.35;;;;;;;;;;5071142;28;20481;-46
2023/02/04 02:07:54;;;;;;;0.73;0.30;;;;;;;;;;5070431;28;20047;-47
2023/02/04 02:10:20;;;;;;;0.70;0.40;;;;;;;;;;5070460;28;20055;-50
2023/02/04 02:12:47;;;;;;;0.30;0.30;;;;;;;;;;5063436;28;20024;-45
2023/02/04 02:15:13;;;;;;;0.52;0.40;;;;;;;;;;5069019;28;20025;-47
2023/02/04 02:17:40;;;;;;;1.35;0.40;;;;;;;;;;5066432;28;20071;-47
2023/02/04 02:20:06;;;;;;;0.32;0.30;;;;;;;;;;5064053;28;20016;-46
2023/02/04 02:22:53;;;;;;;0.40;0.40;;;;;;;;;;5067525;28;20032;-48
2023/02/04 02:25:19;;;;;;;1.02;0.50;;;;;;;;;;5047247;28;20063;-48
2023/02/04 02:27:45;;;;;;;0.88;0.30;;;;;;;;;;5059843;28;20043;-46
2023/02/04 02:30:11;;;;;;;0.77;0.40;;;;;;;;;;5062497;28;20115;-46
2023/02/04 02:32:38;;;;;;;0.60;0.40;;;;;;;;;;5060620;28;20512;-46
2023/02/04 02:35:04;;;;;;;1.10;0.43;;;;;;;;;;5069479;28;20036;-47
2023/02/04 02:37:30;;;;;;;0.70;0.43;;;;;;;;;;5070349;28;20063;-46
2023/02/04 02:39:56;;;;;;;0.50;0.30;;;;;;;;;;5061914;28;20056;-47
2023/02/04 02:42:23;;;;;;;1.17;0.57;;;;;;;;;;5070328;28;20020;-46
2023/02/04 02:44:49;;;;;;;0.73;0.38;;;;;;;;;;5062906;28;20035;-47
2023/02/04 02:47:16;;;;;;;0.25;0.25;;;;;;;;;;5057060;28;20048;-47
2023/02/04 02:49:43;;;;;;;0.60;0.40;;;;;;;;;;5065589;28;20028;-45
2023/02/04 02:52:10;;;;;;;0.30;0.30;;;;;;;;;;5059460;28;20036;-46
2023/02/04 02:54:36;;;;;;;0.30;0.30;;;;;;;;;;5068997;28;20021;-47
2023/02/04 02:57:02;;;;;;;1.20;0.60;;;;;;;;;;5070434;28;20035;-45
2023/02/04 02:59:28;;;;;;;1.95;0.57;;;;;;;;;;5071169;28;20041;-45
2023/02/04 03:01:57;;;;;;;0.70;0.50;;;;;;;;;;5061676;28;20020;-46
2023/02/04 03:04:24;;;;;;;1.10;0.40;;;;;;;;;;5053248;28;20025;-47
2023/02/04 03:06:50;;;;;;;1.17;0.60;;;;;;;;;;5066794;28;20066;-47
2023/02/04 03:09:16;;;;;;;2.00;0.38;;;;;;;;;;5048514;28;20025;-46
2023/02/04 03:11:42;;;;;;;1.27;0.60;;;;;;;;;;5070775;28;20032;-46
2023/02/04 03:14:08;;;;;;;0.85;0.38;;;;;;;;;;5068198;28;20380;-50
2023/02/04 03:16:36;;;;;;;0.82;0.40;;;;;;;;;;5070599;28;20047;-48
2023/02/04 03:19:03;;;;;;;0.45;0.25;;;;;;;;;;5064028;28;20040;-46
2023/02/04 03:21:29;;;;;;;0.60;0.40;;;;;;;;;;5071113;28;20028;-47
2023/02/04 03:23:55;;;;;;;0.57;0.40;;;;;;;;;;5068966;28;20047;-46
2023/02/04 03:26:25;;;;;;;0.77;0.47;;;;;;;;;;5069659;28;20438;-46
2023/02/04 03:28:52;;;;;;;1.15;0.45;;;;;;;;;;5058567;28;20037;-49
2023/02/04 03:31:18;;;;;;;0.65;0.30;;;;;;;;;;5070364;28;20043;-46
2023/02/04 03:33:44;;;;;;;0.50;0.30;;;;;;;;;;5063704;28;20029;-46
2023/02/04 03:36:10;;;;;;;0.85;0.47;;;;;;;;;;5047506;28;20115;-49
2023/02/04 03:38:36;;;;;;;1.33;0.43;;;;;;;;;;5070351;28;20036;-47
2023/02/04 03:41:02;;;;;;;0.68;0.50;;;;;;;;;;5067156;28;20027;-46
2023/02/04 03:43:28;;;;;;;0.57;0.30;;;;;;;;;;5056209;28;20351;-46
2023/02/04 03:45:54;;;;;;;0.95;0.30;;;;;;;;;;5065888;28;20024;-46
2023/02/04 03:48:20;;;;;;;1.65;0.30;;;;;;;;;;5062568;28;20035;-47
2023/02/04 03:50:46;;;;;;;0.85;0.52;;;;;;;;;;5068755;28;20035;-49
2023/02/04 03:53:12;;;;;;;0.60;0.60;;;;;;;;;;5068973;28;20024;-49
2023/02/04 03:55:38;;;;;;;0.93;0.60;;;;;;;;;;5067843;28;20465;-47
2023/02/04 03:58:04;;;;;;;1.33;0.80;;;;;;;;;;5069429;28;20043;-46
2023/02/04 04:00:31;;;;;;;1.23;0.47;;;;;;;;;;5066924;28;20103;-46
2023/02/04 04:02:57;;;;;;;1.05;0.38;;;;;;;;;;5057730;28;20035;-47
2023/02/04 04:05:23;;;;;;;0.55;0.38;;;;;;;;;;5055884;28;20916;-46
2023/02/04 04:07:49;;;;;;;0.82;0.30;;;;;;;;;;5071087;28;20071;-49
2023/02/04 04:10:15;;;;;;;1.48;0.47;;;;;;;;;;5072440;28;20027;-46
2023/02/04 04:12:41;;;;;;;1.02;0.50;;;;;;;;;;5073232;28;20024;-49
2023/02/04 04:15:07;;;;;;;0.63;0.30;;;;;;;;;;5072389;28;20035;-49
2023/02/04 04:17:33;;;;;;;0.40;0.35;;;;;;;;;;5064927;28;20078;-46
2023/02/04 04:19:59;;;;;;;2.20;0.45;;;;;;;;;;5072415;28;20028;-47
2023/02/04 04:22:25;;;;;;;1.55;0.40;;;;;;;;;;5064704;28;20489;-46
2023/02/04 04:24:51;;;;;;;1.13;0.40;;;;;;;;;;5073266;28;20080;-47
2023/02/04 04:27:17;;;;;;;1.98;0.32;;;;;;;;;;5072478;28;20439;-48
2023/02/04 04:29:43;;;;;;;0.70;0.40;;;;;;;;;;5064931;28;20033;-47
2023/02/04 04:32:09;;;;;;;0.45;0.38;;;;;;;;;;5057846;28;20104;-50
2023/02/04 04:34:35;;;;;;;0.85;0.40;;;;;;;;;;5063667;28;20027;-46
2023/02/04 04:37:01;;;;;;;1.33;0.70;;;;;;;;;;5073568;28;20033;-48
2023/02/04 04:39:27;;;;;;;1.00;0.40;;;;;;;;;;5070802;28;20036;-50
2023/02/04 04:41:53;;;;;;;0.90;0.40;;;;;;;;;;5072138;28;20056;-46
2023/02/04 04:44:19;;;;;;;2.45;0.80;;;;;;;;;;5071248;28;20098;-50
2023/02/04 04:46:45;;;;;;;2.42;0.80;;;;;;;;;;5062533;28;20021;-50
2023/02/04 04:49:11;;;;;;;0.90;0.40;;;;;;;;;;5061048;28;20028;-48
2023/02/04 04:51:37;;;;;;;1.27;0.90;;;;;;;;;;5073378;28;20029;-47
2023/02/04 04:54:03;;;;;;;0.57;0.43;;;;;;;;;;5059903;28;20035;-48
2023/02/04 04:56:29;;;;;;;1.45;0.45;;;;;;;;;;5074051;28;20481;-46
2023/02/04 04:58:55;;;;;;;1.65;0.82;;;;;;;;;;5068216;28;20033;-47
2023/02/04 05:01:21;;;;;;;2.00;0.60;;;;;;;;;;5072056;28;20031;-46
2023/02/04 05:03:47;;;;;;;1.40;0.40;;;;;;;;;;5072758;28;20025;-46
2023/02/04 05:06:13;;;;;;;0.45;0.32;;;;;;;;;;5070875;28;20392;-46
2023/02/04 05:08:39;;;;;;;0.50;0.50;;;;;;;;;;5070582;28;20500;-47
2023/02/04 05:11:05;;;;;;;1.10;0.40;;;;;;;;;;5048604;28;20035;-49
2023/02/04 05:13:31;;;;;;;0.52;0.30;;;;;;;;;;5072629;28;20112;-46
2023/02/04 05:15:57;;;;;;;0.90;0.30;;;;;;;;;;5073396;28;20096;-47
2023/02/04 05:18:23;;;;;;;0.32;0.32;;;;;;;;;;5061086;28;20029;-46
2023/02/04 05:20:49;;;;;;;1.00;0.60;;;;;;;;;;5072711;28;20066;-46
2023/02/04 05:23:16;;;;;;;0.40;0.40;;;;;;;;;;5066635;28;20025;-46
2023/02/04 05:25:42;;;;;;;1.55;0.43;;;;;;;;;;5066023;28;20075;-46
2023/02/04 05:28:08;;;;;;;0.93;0.40;;;;;;;;;;5068808;28;20428;-45
2023/02/04 05:30:34;;;;;;;0.60;0.38;;;;;;;;;;5072099;28;20028;-47
2023/02/04 05:33:00;;;;;;;0.40;0.30;;;;;;;;;;5069872;28;20065;-48
2023/02/04 05:35:26;;;;;;;0.60;0.30;;;;;;;;;;5071637;28;20028;-47
2023/02/04 05:37:52;;;;;;;1.75;0.47;;;;;;;;;;5071222;28;20039;-46
2023/02/04 05:40:18;;;;;;;0.40;0.30;;;;;;;;;;5066866;28;20378;-46
2023/02/04 05:42:44;;;;;;;1.10;0.60;;;;;;;;;;5064847;28;20052;-46
2023/02/04 05:45:14;;;;;;;0.82;0.30;;;;;;;;;;5070187;28;20125;-48
2023/02/04 05:47:40;;;;;;;0.98;0.30;;;;;;;;;;5040111;28;20445;-46
2023/02/04 05:50:06;;;;;;;0.80;0.45;;;;;;;;;;5068296;28;20056;-46
2023/02/04 05:52:32;;;;;;;1.27;0.80;;;;;;;;;;5067077;28;20372;-46
2023/02/04 05:54:58;;;;;;;0.88;0.50;;;;;;;;;;5067466;28;20033;-47
2023/02/04 05:57:24;;;;;;;2.30;0.50;;;;;;;;;;5067091;28;20453;-49
2023/02/04 05:59:50;;;;;;;1.23;0.45;;;;;;;;;;5069419;28;20032;-47
2023/02/04 06:02:16;;;;;;;1.08;0.40;;;;;;;;;;5065041;28;20021;-47
2023/02/04 06:04:42;;;;;;;0.47;0.38;;;;;;;;;;5067627;28;20028;-47
2023/02/04 06:07:08;;;;;;;1.67;0.50;;;;;;;;;;5064071;28;20044;-50
2023/02/04 06:09:34;;;;;;;1.50;0.65;;;;;;;;;;5056295;28;20035;-47
2023/02/04 06:12:00;;;;;;;0.60;0.40;;;;;;;;;;5066174;28;20377;-46
2023/02/04 06:14:26;;;;;;;1.67;0.70;;;;;;;;;;5068634;28;20021;-49
2023/02/04 06:16:52;;;;;;;1.23;0.52;;;;;;;;;;5069473;28;20385;-47
2023/02/04 06:19:18;;;;;;;1.65;0.60;;;;;;;;;;5065822;28;20032;-46
2023/02/04 06:21:44;;;;;;;0.55;0.40;;;;;;;;;;5065950;28;20025;-49
2023/02/04 06:24:10;;;;;;;1.23;0.43;;;;;;;;;;5066992;28;20024;-46
2023/02/04 06:26:36;;;;;;;1.63;0.70;;;;;;;;;;5057845;28;20598;-45
2023/02/04 06:29:02;;;;;;;0.85;0.40;;;;;;;;;;5057147;28;20040;-46
2023/02/04 06:31:28;;;;;;;1.70;0.50;;;;;;;;;;5067756;28;20486;-47
2023/02/04 06:33:54;;;;;;;2.33;0.65;;;;;;;;;;5066644;28;20025;-47
2023/02/04 06:36:20;;;;;;;1.42;0.60;;;;;;;;;;5058050;28;20027;-47
2023/02/04 06:38:46;;;;;;;1.00;0.60;;;;;;;;;;5068095;28;20068;-46
2023/02/04 06:41:12;;;;;;;1.52;0.40;;;;;;;;;;5068159;28;20475;-46
2023/02/04 06:43:38;;;;;;;1.85;0.40;;;;;;;;;;5068690;28;20052;-47
2023/02/04 06:46:04;;;;;;;1.00;0.50;;;;;;;;;;5067978;28;20457;-47
2023/02/04 06:48:30;;;;;;;2.35;0.63;;;;;;;;;;5065257;28;20028;-49
2023/02/04 06:50:55;;;;;;;1.13;0.50;;;;;;;;;;5067727;28;20477;-50
2023/02/04 06:53:22;;;;;;;0.90;0.47;;;;;;;;;;5058648;28;20028;-45
2023/02/04 06:55:47;;;;;;;1.52;0.77;;;;;;;;;;5071136;28;20020;-46
2023/02/04 06:58:13;;;;;;;1.75;0.68;;;;;;;;;;5070127;28;20362;-50
2023/02/04 07:00:39;;;;;;;1.70;0.60;;;;;;;;;;5058405;28;20108;-47
2023/02/04 07:03:06;;;;;;;3.88;0.60;;;;;;;;;;5064762;28;20029;-45
2023/02/04 07:05:32;;;;;;;2.42;0.70;;;;;;;;;;5068170;28;20028;-47
2023/02/04 07:07:58;;;;;;;2.08;0.65;;;;;;;;;;5069334;28;20052;-46
2023/02/04 07:10:24;;;;;;;1.60;0.63;;;;;;;;;;5068901;28;20020;-46
2023/02/04 07:12:50;;;;;;;1.83;0.60;;;;;;;;;;5071293;28;20142;-47
2023/02/04 07:15:16;;;;;;;1.00;0.50;;;;;;;;;;5053558;28;20041;-45
2023/02/04 07:17:42;;;;;;;0.70;0.45;;;;;;;;;;5061560;28;20491;-46
2023/02/04 07:20:09;;;;;;;1.02;0.50;;;;;;;;;;5063031;28;20024;-46
2023/02/04 07:22:35;;;;;;;1.00;0.50;;;;;;;;;;5067553;28;20090;-47
2023/02/04 07:25:01;;;;;;;1.00;0.50;;;;;;;;;;5062878;28;20025;-46
2023/02/04 07:27:27;;;;;;;3.95;1.25;;;;;;;;;;5066377;28;20033;-46
2023/02/04 07:29:53;;;;;;;0.98;0.47;;;;;;;;;;5065304;28;20111;-45
2023/02/04 07:32:19;;;;;;;1.35;0.60;;;;;;;;;;5063491;28;20478;-47
2023/02/04 07:34:45;;;;;;;1.42;0.55;;;;;;;;;;5064599;28;20035;-46
2023/02/04 07:37:11;;;;;;;1.50;0.80;;;;;;;;;;5065732;28;20362;-48
2023/02/04 07:39:37;;;;;;;1.05;0.50;;;;;;;;;;5065066;28;20044;-48
2023/02/04 07:42:03;;;;;;;1.67;0.68;;;;;;;;;;5065035;28;20553;-48
2023/02/04 07:44:29;;;;;;;2.05;0.70;;;;;;;;;;5066602;28;20024;-45
2023/02/04 07:46:55;;;;;;;1.23;0.68;;;;;;;;;;5061031;28;20086;-46
2023/02/04 07:49:21;;;;;;;2.90;1.10;;;;;;;;;;5066675;28;20025;-46
2023/02/04 07:51:47;;;;;;;3.58;0.80;;;;;;;;;;5067706;28;20044;-46
2023/02/04 07:54:13;;;;;;;1.48;0.50;;;;;;;;;;5066437;28;20466;-45
2023/02/04 07:56:39;;;;;;;2.53;0.88;;;;;;;;;;5065460;28;20430;-45
2023/02/04 07:59:05;;;;;;;2.17;0.80;;;;;;;;;;5064138;28;20039;-47
2023/02/04 08:01:31;;;;;;;1.00;0.63;;;;;;;;;;5058853;28;20032;-48
2023/02/04 08:03:57;;;;;;;2.65;0.70;;;;;;;;;;5062823;28;20873;-45
2023/02/04 08:06:23;;;;;;;1.05;0.55;;;;;;;;;;5063179;28;20046;-48
2023/02/04 08:08:49;;;;;;;1.83;0.88;;;;;;;;;;5063282;28;20021;-47
2023/02/04 08:11:15;;;;;;;2.47;0.70;;;;;;;;;;5062583;28;20040;-45
2023/02/04 08:13:41;;;;;;;4.93;0.90;;;;;;;;;;5062748;28;20020;-45
2023/02/04 08:16:07;;;;;;;7.15;1.73;;;;;;;;;;5054532;28;20466;-46
2023/02/04 08:18:33;;;;;;;8.25;2.67;;;;;;;;;;5066762;28;20036;-51
2023/02/04 08:21:00;;;;;;;6.85;1.83;;;;;;;;;;5056661;28;20048;-45
2023/02/04 08:23:26;;;;;;;5.65;1.90;;;;;;;;;;5062026;28;20765;-47
2023/02/04 08:25:52;;;;;;;9.35;2.60;;;;;;;;;;5062821;28;20029;-44
2023/02/04 08:28:18;;;;;;;10.27;2.78;;;;;;;;;;5058115;28;20087;-47
2023/02/04 08:30:44;;;;;;;6.40;2.13;;;;;;;;;;5059702;28;20020;-47
2023/02/04 08:33:10;;;;;;;9.45;2.30;;;;;;;;;;5064000;28;20512;-46
2023/02/04 08:35:36;;;;;;;8.38;2.10;;;;;;;;;;5042980;28;20028;-49
2023/02/04 08:38:02;;;;;;;7.22;1.65;;;;;;;;;;5066203;28;20045;-46
2023/02/04 08:40:28;;;;;;;7.65;2.13;;;;;;;;;;5064326;28;20090;-47
2023/02/04 08:42:54;;;;;;;6.82;2.20;;;;;;;;;;5063447;28;20044;-46
2023/02/04 08:45:20;;;;;;;8.23;2.15;;;;;;;;;;5059664;28;20578;-48
2023/02/04 08:47:46;;;;;;;6.03;2.25;;;;;;;;;;5058340;28;20052;-46
2023/02/04 08:50:12;;;;;;;6.60;1.80;;;;;;;;;;5062545;28;20025;-45
2023/02/04 08:52:38;;;;;;;7.57;2.00;;;;;;;;;;5068344;28;20040;-45
2023/02/04 08:55:04;;;;;;;8.85;2.10;;;;;;;;;;5066309;28;20021;-46
2023/02/04 08:57:30;;;;;;;10.45;2.88;;;;;;;;;;5069438;28;20091;-46
2023/02/04 08:59:56;;;;;;;10.23;2.10;;;;;;;;;;5066914;28;20068;-47
2023/02/04 09:02:22;;;;;;;11.00;2.10;;;;;;;;;;5063637;28;20639;-46
2023/02/04 09:04:48;;;;;;;9.30;2.40;;;;;;;;;;5066026;28;20033;-47
2023/02/04 09:07:14;;;;;;;6.35;2.28;;;;;;;;;;5064287;28;20046;-47
2023/02/04 09:09:40;;;;;;;12.63;2.67;;;;;;;;;;5066453;28;20032;-47
2023/02/04 09:12:07;;;;;;;9.43;1.90;;;;;;;;;;5066833;28;20139;-48
2023/02/04 09:14:33;;;;;;;7.38;2.33;;;;;;;;;;5066495;28;20028;-46
2023/02/04 09:17:00;;;;;;;5.30;1.65;;;;;;;;;;5066857;28;20049;-46
2023/02/04 09:19:26;;;;;;;6.75;1.65;;;;;;;;;;5068913;28;20124;-50
2023/02/04 09:21:52;;;;;;;3.35;1.42;;;;;;;;;;5068172;28;20474;-46
2023/02/04 09:24:22;;;;;;;5.40;1.58;;;;;;;;;;5067330;28;20017;-46
2023/02/04 09:26:48;;;;;;;4.65;1.73;;;;;;;;;;5066137;28;20113;-49
2023/02/04 09:29:14;;;;;;;5.47;1.83;;;;;;;;;;5066957;28;20021;-46
2023/02/04 09:31:40;;;;;;;4.18;1.30;;;;;;;;;;5063751;28;20037;-47
2023/02/04 09:34:06;;;;;;;10.23;1.92;;;;;;;;;;5067876;28;20032;-46
2023/02/04 09:36:36;;;;;;;5.03;2.35;;;;;;;;;;5066577;28;20157;-48
2023/02/04 09:39:03;;;;;;;4.45;1.77;;;;;;;;;;5067213;28;20039;-45
2023/02/04 09:41:29;;;;;;;7.50;1.77;;;;;;;;;;5068336;28;20082;-46
2023/02/04 09:43:55;;;;;;;7.15;1.80;;;;;;;;;;5070410;28;20024;-47
2023/02/04 09:46:27;;;;;;;4.40;1.35;;;;;;;;;;5069448;28;20103;-46
2023/02/04 09:48:54;;;;;;;5.18;1.75;;;;;;;;;;5067572;28;20477;-51
2023/02/04 09:51:24;;;;;;;4.30;2.00;;;;;;;;;;5069326;28;20055;-50
2023/02/04 09:53:52;;;;;;;6.13;1.88;;;;;;;;;;5067950;28;20437;-47
2023/02/04 09:56:18;;;;;;;2.88;1.20;;;;;;;;;;5068163;28;20032;-47
2023/02/04 09:58:44;;;;;;;8.73;1.58;;;;;;;;;;5061862;28;20021;-48
2023/02/04 10:01:13;;;;;;;6.15;1.40;;;;;;;;;;5066163;28;20112;-45
2023/02/04 10:03:45;;;;;;;3.00;1.13;;;;;;;;;;5062715;28;20024;-47
2023/02/04 10:06:12;;;;;;;5.43;1.48;;;;;;;;;;5069480;28;20055;-47
2023/02/04 10:08:39;;;;;;;6.65;1.98;;;;;;;;;;5066726;28;20032;-46
2023/02/04 10:11:08;;;;;;;6.82;2.45;;;;;;;;;;5066693;28;20025;-45
2023/02/04 10:13:36;;;;;;;3.88;1.20;;;;;;;;;;5066331;28;20099;-45
2023/02/04 10:16:03;;;;;;;5.25;1.60;;;;;;;;;;5059789;28;20470;-46
2023/02/04 10:18:31;;;;;;;4.47;1.20;;;;;;;;;;5080021;28;20025;-46
2023/02/04 10:21:00;;;;;;;4.50;1.90;;;;;;;;;;5075620;28;20040;-46
2023/02/04 10:23:26;;;;;;;4.40;1.80;;;;;;;;;;5073604;28;20036;-47
2023/02/04 10:25:52;;;;;;;6.65;1.98;;;;;;;;;;5078706;28;20048;-48
2023/02/04 10:28:18;;;;;;;4.22;1.42;;;;;;;;;;5076457;28;20474;-45
2023/02/04 10:30:45;;;;;;;4.20;1.45;;;;;;;;;;5075875;28;20085;-46
2023/02/04 10:33:25;;;;;;;4.68;1.45;;;;;;;;;;5067252;28;20039;-48
2023/02/04 10:35:53;;;;;;;3.72;1.10;;;;;;;;;;5068925;28;20024;-46
2023/02/04 10:38:19;;;;;;;4.53;1.27;;;;;;;;;;5069133;28;20173;-48
2023/02/04 10:40:46;;;;;;;4.43;1.20;;;;;;;;;;5068795;28;20033;-46
2023/02/04 10:43:20;;;;;;;8.73;1.75;;;;;;;;;;5065994;28;20024;-49
2023/02/04 10:45:48;;;;;;;5.40;1.42;;;;;;;;;;5064395;28;20028;-45
2023/02/04 10:48:17;;;;;;;6.57;1.67;;;;;;;;;;5058649;28;20033;-47
2023/02/04 10:50:44;;;;;;;7.53;1.95;;;;;;;;;;5067256;28;20024;-49
2023/02/04 10:55:56;;;;;;;4.70;1.13;;;;;;;;;;5068935;28;20386;-45
2023/02/04 10:58:29;;;;;;;4.22;1.90;;;;;;;;;;5062610;28;20703;-47
2023/02/04 11:00:55;;;;;;;7.20;2.13;;;;;;;;;;5069975;28;20048;-48
2023/02/04 11:03:21;;;;;;;4.97;1.30;;;;;;;;;;5067351;28;20032;-46
2023/02/04 11:05:47;;;;;;;5.93;1.40;;;;;;;;;;5063234;28;20029;-47
2023/02/04 11:08:24;;;;;;;8.55;1.27;;;;;;;;;;5066404;28;20032;-46
2023/02/04 11:11:10;;;;;;;8.40;1.67;;;;;;;;;;5065285;28;20478;-46
2023/02/04 11:13:45;;;;;;;5.93;2.15;;;;;;;;;;5067930;28;20058;-47
2023/02/04 11:16:17;;;;;;;5.13;1.10;;;;;;;;;;5065029;28;20021;-49
2023/02/04 11:18:43;;;;;;;;;;;;;;;;;;5071364;28;20031;-50
2023/02/04 11:21:13;;;;;;;5.57;1.63;;;;;;;;;;5069097;28;20373;-47
2023/02/04 11:23:39;;;;;;;7.07;1.60;;;;;;;;;;5067804;28;20031;-46
2023/02/04 11:26:21;;;;;;;4.38;0.95;;;;;;;;;;5064838;28;20024;-47
2023/02/04 11:28:47;;;;;;;6.90;1.35;;;;;;;;;;5062253;28;20025;-49
2023/02/04 11:31:19;;;;;;;4.68;1.70;;;;;;;;;;5061745;28;20488;-47
2023/02/04 11:33:45;;;;;;;;;;;;;;;;;;5065895;28;20024;-47
2023/02/04 11:36:13;;;;;;;4.43;1.30;;;;;;;;;;5068969;28;20008;-50
2023/02/04 11:38:43;;;;;;;5.60;1.30;;;;;;;;;;5063469;28;20024;-48
2023/02/04 11:41:14;;;;;;;7.05;1.48;;;;;;;;;;5067439;28;20094;-47
2023/02/04 11:43:40;;;;;;;6.28;2.45;;;;;;;;;;5068296;28;20029;-46
2023/02/04 11:46:14;;;;;;;7.88;2.33;;;;;;;;;;5060961;28;20031;-49
2023/02/04 11:48:40;;;;;;;6.00;1.63;;;;;;;;;;5057336;28;20039;-49
2023/02/04 11:51:11;;;;;;;5.80;1.85;;;;;;;;;;5057888;28;20025;-47
2023/02/04 11:53:37;;;;;;;3.50;1.17;;;;;;;;;;5062407;28;20024;-47
2023/02/04 11:56:03;;;;;;;3.90;1.10;;;;;;;;;;5067502;28;20389;-48
2023/02/04 11:58:30;;;;;;;5.45;1.35;;;;;;;;;;5068359;28;20025;-49
2023/02/04 12:00:56;;;;;;;7.47;1.15;;;;;;;;;;5069409;28;20078;-49
2023/02/04 12:03:22;;;;;;;4.72;1.50;;;;;;;;;;5064502;28;20020;-47
2023/02/04 12:05:48;;;;;;;5.25;1.75;;;;;;;;;;5051054;28;20507;-48
2023/02/04 12:08:23;;;;;;;6.45;1.35;;;;;;;;;;5056783;28;20104;-48
2023/02/04 12:10:51;;;;;;;7.25;1.10;;;;;;;;;;5068595;28;20025;-47
2023/02/04 12:13:22;;;;;;;6.63;1.73;;;;;;;;;;5062281;28;20029;-47
2023/02/04 12:15:54;;;;;;;8.90;1.38;;;;;;;;;;5069637;28;20032;-50
2023/02/04 12:18:20;;;;;;;2.40;0.95;;;;;;;;;;5055540;28;20481;-49
2023/02/04 12:20:46;;;;;;;6.18;1.25;;;;;;;;;;5069246;28;20032;-50
2023/02/04 12:23:12;;;;;;;5.68;1.40;;;;;;;;;;5057408;28;20489;-47
2023/02/04 12:25:38;;;;;;;3.70;1.45;;;;;;;;;;5063899;28;20032;-48
2023/02/04 12:28:04;;;;;;;3.25;1.02;;;;;;;;;;5069667;28;20028;-46
2023/02/04 12:30:30;;;;;;;3.22;1.05;;;;;;;;;;5068318;28;20077;-47
2023/02/04 12:32:56;;;;;;;6.18;1.38;;;;;;;;;;5072424;28;20020;-47
2023/02/04 12:35:22;;;;;;;4.82;1.30;;;;;;;;;;5062834;28;20057;-47
2023/02/04 12:37:48;;;;;;;6.07;1.65;;;;;;;;;;5062734;28;20075;-47
2023/02/04 12:40:17;;;;;;;6.57;1.27;;;;;;;;;;5060646;28;20031;-47
2023/02/04 12:42:43;;;;;;;3.58;1.50;;;;;;;;;;5072161;28;20035;-47
2023/02/04 12:45:10;;;;;;;2.78;1.35;;;;;;;;;;5072141;28;20032;-48
2023/02/04 12:47:37;;;;;;;3.20;1.33;;;;;;;;;;5068990;28;20033;-47
2023/02/04 12:50:04;;;;;;;5.25;1.50;;;;;;;;;;5071864;28;20516;-46
2023/02/04 12:52:30;;;;;;;2.40;0.90;;;;;;;;;;5068020;28;20033;-47
2023/02/04 12:54:56;;;;;;;3.65;1.20;;;;;;;;;;5073150;28;20024;-47
2023/02/04 12:57:22;;;;;;;3.00;1.65;;;;;;;;;;5068501;28;20547;-47
2023/02/04 12:59:48;;;;;;;2.40;0.90;;;;;;;;;;5072433;28;20037;-49
2023/02/04 13:02:14;;;;;;;2.38;1.08;;;;;;;;;;5071968;28;20040;-47
2023/02/04 13:04:41;;;;;;;3.53;0.90;;;;;;;;;;5068203;28;20040;-48
2023/02/04 13:07:07;;;;;;;2.38;0.90;;;;;;;;;;5067834;28;20102;-47
2023/02/04 13:09:34;;;;;;;3.45;1.10;;;;;;;;;;5061121;28;20370;-47
2023/02/04 13:12:00;;;;;;;3.65;1.25;;;;;;;;;;5072776;28;20469;-47
2023/02/04 13:14:26;;;;;;;3.17;1.00;;;;;;;;;;5071338;28;20035;-48
2023/02/04 13:16:52;;;;;;;3.15;1.10;;;;;;;;;;5070738;28;20025;-48
2023/02/04 13:19:18;;;;;;;2.67;1.05;;;;;;;;;;5068718;28;20036;-47
2023/02/04 13:21:44;;;;;;;2.08;1.23;;;;;;;;;;5070088;28;20047;-48
2023/02/04 13:24:10;;;;;;;3.53;0.93;;;;;;;;;;5062560;28;20465;-48
2023/02/04 13:26:36;;;;;;;2.90;1.20;;;;;;;;;;5059950;28;20025;-48
2023/02/04 13:29:02;;;;;;;2.45;0.60;;;;;;;;;;5054232;28;20039;-48
2023/02/04 13:31:28;;;;;;;3.20;1.05;;;;;;;;;;5067367;28;20501;-47
2023/02/04 13:33:54;;;;;;;2.90;0.95;;;;;;;;;;5062224;28;20033;-48
2023/02/04 13:36:20;;;;;;;5.38;1.50;;;;;;;;;;5057129;28;20241;-47
2023/02/04 13:38:46;;;;;;;3.28;1.10;;;;;;;;;;5066145;28;20021;-47
2023/02/04 13:41:12;;;;;;;6.35;1.85;;;;;;;;;;5069802;28;20367;-49
2023/02/04 13:43:38;;;;;;;3.97;1.23;;;;;;;;;;5058927;28;20124;-48
2023/02/04 13:46:05;;;;;;;2.05;0.80;;;;;;;;;;5071859;28;20032;-47
2023/02/04 13:48:31;;;;;;;2.88;1.05;;;;;;;;;;5068667;28;20046;-47
2023/02/04 13:50:57;;;;;;;2.45;1.33;;;;;;;;;;5040839;28;20036;-47
2023/02/04 13:53:25;;;;;;;4.47;1.00;;;;;;;;;;5067174;28;20020;-47
2023/02/04 13:55:51;;;;;;;4.55;1.52;;;;;;;;;;5072230;28;20021;-47
2023/02/04 13:58:17;;;;;;;3.30;0.80;;;;;;;;;;5064498;28;20031;-48
2023/02/04 14:00:43;;;;;;;3.35;1.00;;;;;;;;;;5072059;28;20045;-48
2023/02/04 14:03:09;;;;;;;5.07;1.63;;;;;;;;;;5066996;28;20104;-47
2023/02/04 14:05:35;;;;;;;7.22;2.33;;;;;;;;;;5041969;28;20028;-49
2023/02/04 14:08:01;;;;;;;2.97;1.10;;;;;;;;;;5059747;28;20025;-46
2023/02/04 14:10:27;;;;;;;3.80;1.02;;;;;;;;;;5071370;28;20462;-46
2023/02/04 14:12:53;;;;;;;3.80;1.00;;;;;;;;;;5066364;28;20150;-45
2023/02/04 14:15:19;;;;;;;4.35;0.90;;;;;;;;;;5070468;28;20028;-45
2023/02/04 14:17:45;;;;;;;3.80;0.98;;;;;;;;;;5062699;28;20025;-47
2023/02/04 14:20:11;;;;;;;4.10;1.35;;;;;;;;;;5061740;28;20033;-46
2023/02/04 14:22:37;;;;;;;2.78;0.98;;;;;;;;;;5063439;28;20070;-46
2023/02/04 14:25:03;;;;;;;4.95;1.30;;;;;;;;;;5064972;28;20502;-46
2023/02/04 14:27:29;;;;;;;3.95;1.33;;;;;;;;;;5068705;28;20025;-46
2023/02/04 14:29:55;;;;;;;2.30;0.95;;;;;;;;;;5059821;28;20047;-46
2023/02/04 14:32:22;;;;;;;4.70;1.00;;;;;;;;;;5058038;28;20032;-45
2023/02/04 14:34:48;;;;;;;3.58;1.05;;;;;;;;;;5065152;28;20074;-45
2023/02/04 14:37:14;;;;;;;3.28;1.08;;;;;;;;;;5066965;28;20033;-45
2023/02/04 14:39:40;;;;;;;3.45;0.90;;;;;;;;;;5070820;28;20103;-47
2023/02/04 14:42:06;;;;;;;3.13;1.40;;;;;;;;;;5069678;28;20448;-48